sensor_id;sensor_type;location;lat;lon;timestamp;temperature;humidity
26182;DHT22;13927;51.534;11.866;2024-02-21T00:00:47;8.50;99.90
26182;DHT22;13927;51.534;11.866;2024-02-21T00:03:12;8.50;99.90
26182;DHT22;13927;51.534;11.866;2024-02-21T00:05:38;8.50;99.90
26182;DHT22;13927;51.534;11.866;2024-02-21T00:08:04;8.40;99.90
26182;DHT22;13927;51.534;11.866;2024-02-21T00:10:30;8.40;99.90
26182;DHT22;13927;51.534;11.866;2024-02-21T00:12:57;8.40;99.90
26182;DHT22;13927;51.534;11.866;2024-02-21T00:15:25;8.40;99.90
26182;DHT22;13927;51.534;11.866;2024-02-21T00:17:51;8.30;99.90
26182;DHT22;13927;51.534;11.866;2024-02-21T00:20:16;8.30;99.90
26182;DHT22;13927;51.534;11.866;2024-02-21T00:22:43;8.30;99.90
26182;DHT22;13927;51.534;11.866;2024-02-21T00:25:09;8.30;99.90
26182;DHT22;13927;51.534;11.866;2024-02-21T00:27:35;8.30;99.90
26182;DHT22;13927;51.534;11.866;2024-02-21T00:30:01;8.30;99.90
26182;DHT22;13927;51.534;11.866;2024-02-21T00:32:27;8.30;99.90
26182;DHT22;13927;51.534;11.866;2024-02-21T00:34:53;8.30;99.90
26182;DHT22;13927;51.534;11.866;2024-02-21T00:37:19;8.30;99.90
26182;DHT22;13927;51.534;11.866;2024-02-21T00:39:44;8.30;99.90
26182;DHT22;13927;51.534;11.866;2024-02-21T00:42:10;8.40;99.90
26182;DHT22;13927;51.534;11.866;2024-02-21T00:44:36;8.40;99.90
26182;DHT22;13927;51.534;11.866;2024-02-21T00:47:01;8.40;99.90
26182;DHT22;13927;51.534;11.866;2024-02-21T00:49:27;8.40;99.90
26182;DHT22;13927;51.534;11.866;2024-02-21T00:51:53;8.40;99.90
26182;DHT22;13927;51.534;11.866;2024-02-21T00:54:18;8.40;99.90
26182;DHT22;13927;51.534;11.866;2024-02-21T00:56:44;8.40;99.90
26182;DHT22;13927;51.534;11.866;2024-02-21T00:59:10;8.40;99.90
26182;DHT22;13927;51.534;11.866;2024-02-21T01:01:35;8.40;99.90
26182;DHT22;13927;51.534;11.866;2024-02-21T01:04:01;8.40;99.90
26182;DHT22;13927;51.534;11.866;2024-02-21T01:06:27;8.40;99.90
26182;DHT22;13927;51.534;11.866;2024-02-21T01:08:53;8.40;99.90
26182;DHT22;13927;51.534;11.866;2024-02-21T01:11:18;8.40;99.90
26182;DHT22;13927;51.534;11.866;2024-02-21T01:13:44;8.40;99.90
26182;DHT22;13927;51.534;11.866;2024-02-21T01:16:10;8.40;99.90
26182;DHT22;13927;51.534;11.866;2024-02-21T01:18:39;8.40;99.90
26182;DHT22;13927;51.534;11.866;2024-02-21T01:21:05;8.40;99.90
26182;DHT22;13927;51.534;11.866;2024-02-21T01:23:36;8.40;99.90
26182;DHT22;13927;51.534;11.866;2024-02-21T01:26:03;8.40;99.90
26182;DHT22;13927;51.534;11.866;2024-02-21T01:28:29;8.50;99.90
26182;DHT22;13927;51.534;11.866;2024-02-21T01:30:56;8.40;99.90
26182;DHT22;13927;51.534;11.866;2024-02-21T01:33:22;8.40;99.90
26182;DHT22;13927;51.534;11.866;2024-02-21T01:35:48;8.50;99.90
26182;DHT22;13927;51.534;11.866;2024-02-21T01:38:14;8.50;99.90
26182;DHT22;13927;51.534;11.866;2024-02-21T01:40:40;8.50;99.90
26182;DHT22;13927;51.534;11.866;2024-02-21T01:43:15;8.40;99.90
26182;DHT22;13927;51.534;11.866;2024-02-21T01:45:43;8.50;99.90
26182;DHT22;13927;51.534;11.866;2024-02-21T01:48:10;8.50;99.90
26182;DHT22;13927;51.534;11.866;2024-02-21T01:50:36;8.50;99.90
26182;DHT22;13927;51.534;11.866;2024-02-21T01:53:02;8.50;99.90
26182;DHT22;13927;51.534;11.866;2024-02-21T01:55:28;8.50;99.90
26182;DHT22;13927;51.534;11.866;2024-02-21T01:57:54;8.50;99.90
26182;DHT22;13927;51.534;11.866;2024-02-21T02:00:20;8.60;99.90
26182;DHT22;13927;51.534;11.866;2024-02-21T02:02:46;8.60;99.90
26182;DHT22;13927;51.534;11.866;2024-02-21T02:05:11;8.60;99.90
26182;DHT22;13927;51.534;11.866;2024-02-21T02:07:37;8.60;99.90
26182;DHT22;13927;51.534;11.866;2024-02-21T02:10:03;8.70;99.90
26182;DHT22;13927;51.534;11.866;2024-02-21T02:12:29;8.70;99.90
26182;DHT22;13927;51.534;11.866;2024-02-21T02:15:02;8.70;99.90
26182;DHT22;13927;51.534;11.866;2024-02-21T02:17:30;8.70;99.90
26182;DHT22;13927;51.534;11.866;2024-02-21T02:19:56;8.70;99.90
26182;DHT22;13927;51.534;11.866;2024-02-21T02:22:29;8.70;99.90
26182;DHT22;13927;51.534;11.866;2024-02-21T02:24:57;8.70;99.90
26182;DHT22;13927;51.534;11.866;2024-02-21T02:27:23;8.70;99.90
26182;DHT22;13927;51.534;11.866;2024-02-21T02:29:49;8.60;99.90
26182;DHT22;13927;51.534;11.866;2024-02-21T02:32:15;8.60;99.90
26182;DHT22;13927;51.534;11.866;2024-02-21T02:34:41;8.60;99.90
26182;DHT22;13927;51.534;11.866;2024-02-21T02:37:07;8.60;99.90
26182;DHT22;13927;51.534;11.866;2024-02-21T02:39:32;8.50;99.90
26182;DHT22;13927;51.534;11.866;2024-02-21T02:41:58;8.50;99.90
26182;DHT22;13927;51.534;11.866;2024-02-21T02:44:24;8.50;99.90
26182;DHT22;13927;51.534;11.866;2024-02-21T02:46:50;8.60;99.90
26182;DHT22;13927;51.534;11.866;2024-02-21T02:49:15;8.50;99.90
26182;DHT22;13927;51.534;11.866;2024-02-21T02:51:42;8.50;99.90
26182;DHT22;13927;51.534;11.866;2024-02-21T02:54:08;8.50;99.90
26182;DHT22;13927;51.534;11.866;2024-02-21T02:56:34;8.50;99.90
26182;DHT22;13927;51.534;11.866;2024-02-21T02:59:00;8.50;99.90
26182;DHT22;13927;51.534;11.866;2024-02-21T03:01:26;8.40;99.90
26182;DHT22;13927;51.534;11.866;2024-02-21T03:03:52;8.40;99.90
26182;DHT22;13927;51.534;11.866;2024-02-21T03:06:19;8.40;99.90
26182;DHT22;13927;51.534;11.866;2024-02-21T03:08:44;8.40;99.90
26182;DHT22;13927;51.534;11.866;2024-02-21T03:11:10;8.40;99.90
26182;DHT22;13927;51.534;11.866;2024-02-21T03:13:36;8.40;99.90
26182;DHT22;13927;51.534;11.866;2024-02-21T03:16:02;8.40;99.90
26182;DHT22;13927;51.534;11.866;2024-02-21T03:18:28;8.50;99.90
26182;DHT22;13927;51.534;11.866;2024-02-21T03:20:53;8.50;99.90
26182;DHT22;13927;51.534;11.866;2024-02-21T03:23:19;8.40;99.90
26182;DHT22;13927;51.534;11.866;2024-02-21T03:25:45;8.40;99.90
26182;DHT22;13927;51.534;11.866;2024-02-21T03:28:11;8.40;99.90
26182;DHT22;13927;51.534;11.866;2024-02-21T03:30:36;8.40;99.90
26182;DHT22;13927;51.534;11.866;2024-02-21T03:33:02;8.40;99.90
26182;DHT22;13927;51.534;11.866;2024-02-21T03:35:28;8.30;99.90
26182;DHT22;13927;51.534;11.866;2024-02-21T03:37:54;8.30;99.90
26182;DHT22;13927;51.534;11.866;2024-02-21T03:40:20;8.30;99.90
26182;DHT22;13927;51.534;11.866;2024-02-21T03:42:46;8.30;99.90
26182;DHT22;13927;51.534;11.866;2024-02-21T03:45:11;8.30;99.90
26182;DHT22;13927;51.534;11.866;2024-02-21T03:47:37;8.30;99.90
26182;DHT22;13927;51.534;11.866;2024-02-21T03:50:04;8.30;99.90
26182;DHT22;13927;51.534;11.866;2024-02-21T03:52:30;8.30;99.90
26182;DHT22;13927;51.534;11.866;2024-02-21T03:54:56;8.30;99.90
26182;DHT22;13927;51.534;11.866;2024-02-21T03:57:21;8.30;99.90
26182;DHT22;13927;51.534;11.866;2024-02-21T03:59:50;8.30;99.90
26182;DHT22;13927;51.534;11.866;2024-02-21T04:02:17;8.30;99.90
26182;DHT22;13927;51.534;11.866;2024-02-21T04:04:43;8.30;99.90
26182;DHT22;13927;51.534;11.866;2024-02-21T04:07:13;8.30;99.90
26182;DHT22;13927;51.534;11.866;2024-02-21T04:09:39;8.30;99.90
26182;DHT22;13927;51.534;11.866;2024-02-21T04:12:08;8.30;99.90
26182;DHT22;13927;51.534;11.866;2024-02-21T04:14:35;8.30;99.90
26182;DHT22;13927;51.534;11.866;2024-02-21T04:17:00;8.30;99.90
26182;DHT22;13927;51.534;11.866;2024-02-21T04:19:26;8.20;99.90
26182;DHT22;13927;51.534;11.866;2024-02-21T04:21:52;8.20;99.90
26182;DHT22;13927;51.534;11.866;2024-02-21T04:24:18;8.20;99.90
26182;DHT22;13927;51.534;11.866;2024-02-21T04:26:43;8.20;99.90
26182;DHT22;13927;51.534;11.866;2024-02-21T04:29:09;8.20;99.90
26182;DHT22;13927;51.534;11.866;2024-02-21T04:31:35;8.20;99.90
26182;DHT22;13927;51.534;11.866;2024-02-21T04:34:01;8.20;99.90
26182;DHT22;13927;51.534;11.866;2024-02-21T04:36:28;8.20;99.90
26182;DHT22;13927;51.534;11.866;2024-02-21T04:38:53;8.20;99.90
26182;DHT22;13927;51.534;11.866;2024-02-21T04:41:19;8.20;99.90
26182;DHT22;13927;51.534;11.866;2024-02-21T04:43:46;8.20;99.90
26182;DHT22;13927;51.534;11.866;2024-02-21T04:46:13;8.20;99.90
26182;DHT22;13927;51.534;11.866;2024-02-21T04:48:39;8.20;99.90
26182;DHT22;13927;51.534;11.866;2024-02-21T04:51:04;8.20;99.90
26182;DHT22;13927;51.534;11.866;2024-02-21T04:53:30;8.20;99.90
26182;DHT22;13927;51.534;11.866;2024-02-21T04:55:56;8.20;99.90
26182;DHT22;13927;51.534;11.866;2024-02-21T04:58:21;8.20;99.90
26182;DHT22;13927;51.534;11.866;2024-02-21T05:00:47;8.20;99.90
26182;DHT22;13927;51.534;11.866;2024-02-21T05:03:13;8.20;99.90
26182;DHT22;13927;51.534;11.866;2024-02-21T05:05:38;8.20;99.90
26182;DHT22;13927;51.534;11.866;2024-02-21T05:08:04;8.20;99.90
26182;DHT22;13927;51.534;11.866;2024-02-21T05:10:30;8.20;99.90
26182;DHT22;13927;51.534;11.866;2024-02-21T05:12:56;8.20;99.90
26182;DHT22;13927;51.534;11.866;2024-02-21T05:15:22;8.20;99.90
26182;DHT22;13927;51.534;11.866;2024-02-21T05:17:48;8.10;99.90
26182;DHT22;13927;51.534;11.866;2024-02-21T05:20:13;8.10;99.90
26182;DHT22;13927;51.534;11.866;2024-02-21T05:22:39;8.20;99.90
26182;DHT22;13927;51.534;11.866;2024-02-21T05:25:05;8.10;99.90
26182;DHT22;13927;51.534;11.866;2024-02-21T05:27:31;8.20;99.90
26182;DHT22;13927;51.534;11.866;2024-02-21T05:29:57;8.10;99.90
26182;DHT22;13927;51.534;11.866;2024-02-21T05:32:23;8.10;99.90
26182;DHT22;13927;51.534;11.866;2024-02-21T05:34:50;8.00;99.90
26182;DHT22;13927;51.534;11.866;2024-02-21T05:37:16;7.90;99.90
26182;DHT22;13927;51.534;11.866;2024-02-21T05:39:42;7.90;99.90
26182;DHT22;13927;51.534;11.866;2024-02-21T05:42:07;7.80;99.90
26182;DHT22;13927;51.534;11.866;2024-02-21T05:44:33;7.80;99.90
26182;DHT22;13927;51.534;11.866;2024-02-21T05:46:59;7.70;99.90
26182;DHT22;13927;51.534;11.866;2024-02-21T05:49:24;7.70;99.90
26182;DHT22;13927;51.534;11.866;2024-02-21T05:51:50;7.70;99.90
26182;DHT22;13927;51.534;11.866;2024-02-21T05:54:16;7.70;99.90
26182;DHT22;13927;51.534;11.866;2024-02-21T05:56:45;7.70;99.90
26182;DHT22;13927;51.534;11.866;2024-02-21T05:59:11;7.70;99.90
26182;DHT22;13927;51.534;11.866;2024-02-21T06:01:37;7.70;99.90
26182;DHT22;13927;51.534;11.866;2024-02-21T06:04:03;7.70;99.90
26182;DHT22;13927;51.534;11.866;2024-02-21T06:06:29;7.80;99.90
26182;DHT22;13927;51.534;11.866;2024-02-21T06:08:56;7.80;99.90
26182;DHT22;13927;51.534;11.866;2024-02-21T06:11:22;7.80;99.90
26182;DHT22;13927;51.534;11.866;2024-02-21T06:13:48;7.90;99.90
26182;DHT22;13927;51.534;11.866;2024-02-21T06:16:13;7.90;99.90
26182;DHT22;13927;51.534;11.866;2024-02-21T06:18:39;8.00;99.90
26182;DHT22;13927;51.534;11.866;2024-02-21T06:21:05;8.00;99.90
26182;DHT22;13927;51.534;11.866;2024-02-21T06:23:31;8.10;99.90
26182;DHT22;13927;51.534;11.866;2024-02-21T06:25:56;8.10;99.90
26182;DHT22;13927;51.534;11.866;2024-02-21T06:28:22;8.10;99.90
26182;DHT22;13927;51.534;11.866;2024-02-21T06:30:48;8.10;99.90
26182;DHT22;13927;51.534;11.866;2024-02-21T06:33:13;8.10;99.90
26182;DHT22;13927;51.534;11.866;2024-02-21T06:35:39;8.10;99.90
26182;DHT22;13927;51.534;11.866;2024-02-21T06:38:06;8.20;99.90
26182;DHT22;13927;51.534;11.866;2024-02-21T06:40:33;8.20;99.90
26182;DHT22;13927;51.534;11.866;2024-02-21T06:43:04;8.20;99.90
26182;DHT22;13927;51.534;11.866;2024-02-21T06:45:30;8.20;99.90
26182;DHT22;13927;51.534;11.866;2024-02-21T06:47:56;8.30;99.90
26182;DHT22;13927;51.534;11.866;2024-02-21T06:50:21;8.30;99.90
26182;DHT22;13927;51.534;11.866;2024-02-21T06:52:47;8.30;99.90
26182;DHT22;13927;51.534;11.866;2024-02-21T06:55:13;8.30;99.90
26182;DHT22;13927;51.534;11.866;2024-02-21T06:57:38;8.30;99.90
26182;DHT22;13927;51.534;11.866;2024-02-21T07:00:05;8.30;99.90
26182;DHT22;13927;51.534;11.866;2024-02-21T07:02:33;8.30;99.90
26182;DHT22;13927;51.534;11.866;2024-02-21T07:04:59;8.40;99.90
26182;DHT22;13927;51.534;11.866;2024-02-21T07:07:25;8.40;99.90
26182;DHT22;13927;51.534;11.866;2024-02-21T07:09:51;8.40;99.90
26182;DHT22;13927;51.534;11.866;2024-02-21T07:12:18;8.40;99.90
26182;DHT22;13927;51.534;11.866;2024-02-21T07:14:44;8.40;99.90
26182;DHT22;13927;51.534;11.866;2024-02-21T07:17:10;8.40;99.90
26182;DHT22;13927;51.534;11.866;2024-02-21T07:19:36;8.50;99.90
26182;DHT22;13927;51.534;11.866;2024-02-21T07:22:02;8.50;99.90
26182;DHT22;13927;51.534;11.866;2024-02-21T07:24:28;8.60;99.90
26182;DHT22;13927;51.534;11.866;2024-02-21T07:26:54;8.70;99.90
26182;DHT22;13927;51.534;11.866;2024-02-21T07:29:21;8.70;99.90
26182;DHT22;13927;51.534;11.866;2024-02-21T07:31:48;8.80;99.90
26182;DHT22;13927;51.534;11.866;2024-02-21T07:34:17;8.90;99.90
26182;DHT22;13927;51.534;11.866;2024-02-21T07:36:43;9.00;99.90
26182;DHT22;13927;51.534;11.866;2024-02-21T07:39:10;9.10;99.90
26182;DHT22;13927;51.534;11.866;2024-02-21T07:41:36;9.10;99.90
26182;DHT22;13927;51.534;11.866;2024-02-21T07:44:02;9.10;99.90
26182;DHT22;13927;51.534;11.866;2024-02-21T07:46:29;9.10;99.90
26182;DHT22;13927;51.534;11.866;2024-02-21T07:48:54;9.00;99.90
26182;DHT22;13927;51.534;11.866;2024-02-21T07:51:20;9.00;99.90
26182;DHT22;13927;51.534;11.866;2024-02-21T07:53:47;9.00;99.90
26182;DHT22;13927;51.534;11.866;2024-02-21T07:56:15;9.10;99.90
26182;DHT22;13927;51.534;11.866;2024-02-21T07:58:41;9.10;99.90
26182;DHT22;13927;51.534;11.866;2024-02-21T08:01:08;9.20;99.90
26182;DHT22;13927;51.534;11.866;2024-02-21T08:03:34;9.20;99.90
26182;DHT22;13927;51.534;11.866;2024-02-21T08:06:00;9.20;99.90
26182;DHT22;13927;51.534;11.866;2024-02-21T08:08:26;9.10;99.90
26182;DHT22;13927;51.534;11.866;2024-02-21T08:10:52;9.00;99.90
26182;DHT22;13927;51.534;11.866;2024-02-21T08:13:18;8.90;99.90
26182;DHT22;13927;51.534;11.866;2024-02-21T08:15:44;8.90;99.90
26182;DHT22;13927;51.534;11.866;2024-02-21T08:18:10;8.80;99.90
26182;DHT22;13927;51.534;11.866;2024-02-21T08:20:36;8.80;99.90
26182;DHT22;13927;51.534;11.866;2024-02-21T08:23:02;8.80;99.90
26182;DHT22;13927;51.534;11.866;2024-02-21T08:25:28;8.90;99.90
26182;DHT22;13927;51.534;11.866;2024-02-21T08:27:58;9.10;99.90
26182;DHT22;13927;51.534;11.866;2024-02-21T08:30:26;9.30;99.90
26182;DHT22;13927;51.534;11.866;2024-02-21T08:32:52;9.50;99.90
26182;DHT22;13927;51.534;11.866;2024-02-21T08:35:19;9.70;99.90
26182;DHT22;13927;51.534;11.866;2024-02-21T08:37:48;9.80;99.90
26182;DHT22;13927;51.534;11.866;2024-02-21T08:40:15;9.90;99.90
26182;DHT22;13927;51.534;11.866;2024-02-21T08:42:45;10.10;99.90
26182;DHT22;13927;51.534;11.866;2024-02-21T08:45:11;10.20;99.90
26182;DHT22;13927;51.534;11.866;2024-02-21T08:47:40;10.30;99.90
26182;DHT22;13927;51.534;11.866;2024-02-21T08:50:08;10.40;99.90
26182;DHT22;13927;51.534;11.866;2024-02-21T08:52:37;10.30;99.90
26182;DHT22;13927;51.534;11.866;2024-02-21T08:55:04;10.40;99.90
26182;DHT22;13927;51.534;11.866;2024-02-21T08:57:30;10.50;99.90
26182;DHT22;13927;51.534;11.866;2024-02-21T09:00:05;10.60;99.90
26182;DHT22;13927;51.534;11.866;2024-02-21T09:02:42;10.60;99.90
26182;DHT22;13927;51.534;11.866;2024-02-21T09:05:11;10.30;99.90
26182;DHT22;13927;51.534;11.866;2024-02-21T09:07:36;10.00;99.90
26182;DHT22;13927;51.534;11.866;2024-02-21T09:10:02;9.90;99.90
26182;DHT22;13927;51.534;11.866;2024-02-21T09:12:28;9.70;99.90
26182;DHT22;13927;51.534;11.866;2024-02-21T09:14:54;9.60;99.90
26182;DHT22;13927;51.534;11.866;2024-02-21T09:17:20;9.60;99.90
26182;DHT22;13927;51.534;11.866;2024-02-21T09:19:49;9.50;99.90
26182;DHT22;13927;51.534;11.866;2024-02-21T09:22:15;9.40;99.90
26182;DHT22;13927;51.534;11.866;2024-02-21T09:24:40;9.40;99.90
26182;DHT22;13927;51.534;11.866;2024-02-21T09:27:06;9.50;99.90
26182;DHT22;13927;51.534;11.866;2024-02-21T09:29:32;9.50;99.90
26182;DHT22;13927;51.534;11.866;2024-02-21T09:32:01;9.50;99.90
26182;DHT22;13927;51.534;11.866;2024-02-21T09:34:29;9.50;99.90
26182;DHT22;13927;51.534;11.866;2024-02-21T09:36:55;9.70;99.90
26182;DHT22;13927;51.534;11.866;2024-02-21T09:39:21;9.80;99.90
26182;DHT22;13927;51.534;11.866;2024-02-21T09:42:00;9.80;99.90
26182;DHT22;13927;51.534;11.866;2024-02-21T09:44:36;9.70;99.90
26182;DHT22;13927;51.534;11.866;2024-02-21T09:47:22;9.80;99.90
26182;DHT22;13927;51.534;11.866;2024-02-21T09:49:51;9.90;99.90
26182;DHT22;13927;51.534;11.866;2024-02-21T09:52:18;10.00;99.90
26182;DHT22;13927;51.534;11.866;2024-02-21T09:54:45;10.30;99.90
26182;DHT22;13927;51.534;11.866;2024-02-21T09:57:12;10.50;99.90
26182;DHT22;13927;51.534;11.866;2024-02-21T09:59:40;10.70;99.90
26182;DHT22;13927;51.534;11.866;2024-02-21T10:02:09;10.90;99.90
26182;DHT22;13927;51.534;11.866;2024-02-21T10:04:37;11.20;99.90
26182;DHT22;13927;51.534;11.866;2024-02-21T10:07:05;11.40;99.90
26182;DHT22;13927;51.534;11.866;2024-02-21T10:09:33;11.40;99.90
26182;DHT22;13927;51.534;11.866;2024-02-21T10:12:12;11.60;99.90
26182;DHT22;13927;51.534;11.866;2024-02-21T10:14:39;11.70;99.90
26182;DHT22;13927;51.534;11.866;2024-02-21T10:17:05;11.80;99.90
26182;DHT22;13927;51.534;11.866;2024-02-21T10:19:35;11.80;99.90
26182;DHT22;13927;51.534;11.866;2024-02-21T10:22:04;11.90;99.90
26182;DHT22;13927;51.534;11.866;2024-02-21T10:24:31;12.10;99.90
26182;DHT22;13927;51.534;11.866;2024-02-21T10:27:05;12.10;99.90
26182;DHT22;13927;51.534;11.866;2024-02-21T10:29:36;12.10;99.90
26182;DHT22;13927;51.534;11.866;2024-02-21T10:32:13;12.10;99.90
26182;DHT22;13927;51.534;11.866;2024-02-21T10:34:41;11.70;99.90
26182;DHT22;13927;51.534;11.866;2024-02-21T10:37:10;11.60;99.90
26182;DHT22;13927;51.534;11.866;2024-02-21T10:39:41;11.90;99.90
26182;DHT22;13927;51.534;11.866;2024-02-21T10:42:11;12.20;99.90
26182;DHT22;13927;51.534;11.866;2024-02-21T10:44:40;12.30;99.90
26182;DHT22;13927;51.534;11.866;2024-02-21T10:47:10;12.30;99.90
26182;DHT22;13927;51.534;11.866;2024-02-21T10:49:41;12.10;99.90
26182;DHT22;13927;51.534;11.866;2024-02-21T10:55:30;11.40;99.90
26182;DHT22;13927;51.534;11.866;2024-02-21T10:58:01;11.20;99.90
26182;DHT22;13927;51.534;11.866;2024-02-21T11:00:29;11.20;99.90
26182;DHT22;13927;51.534;11.866;2024-02-21T11:02:58;11.20;99.90
26182;DHT22;13927;51.534;11.866;2024-02-21T11:05:24;11.40;99.90
26182;DHT22;13927;51.534;11.866;2024-02-21T11:07:52;11.50;99.90
26182;DHT22;13927;51.534;11.866;2024-02-21T11:10:26;11.60;99.90
26182;DHT22;13927;51.534;11.866;2024-02-21T11:13:04;11.90;99.90
26182;DHT22;13927;51.534;11.866;2024-02-21T11:15:33;12.30;99.90
26182;DHT22;13927;51.534;11.866;2024-02-21T11:18:00;12.50;99.90
26182;DHT22;13927;51.534;11.866;2024-02-21T11:20:37;12.50;99.90
26182;DHT22;13927;51.534;11.866;2024-02-21T11:23:04;12.40;99.90
26182;DHT22;13927;51.534;11.866;2024-02-21T11:25:31;12.30;99.90
26182;DHT22;13927;51.534;11.866;2024-02-21T11:28:05;12.20;99.90
26182;DHT22;13927;51.534;11.866;2024-02-21T11:30:35;12.00;99.90
26182;DHT22;13927;51.534;11.866;2024-02-21T11:33:05;11.90;99.90
26182;DHT22;13927;51.534;11.866;2024-02-21T11:35:34;11.90;99.90
26182;DHT22;13927;51.534;11.866;2024-02-21T11:38:10;11.90;99.90
26182;DHT22;13927;51.534;11.866;2024-02-21T11:40:44;12.10;99.90
26182;DHT22;13927;51.534;11.866;2024-02-21T11:43:13;12.30;99.90
26182;DHT22;13927;51.534;11.866;2024-02-21T11:45:39;12.40;99.90
26182;DHT22;13927;51.534;11.866;2024-02-21T11:48:06;12.30;99.90
26182;DHT22;13927;51.534;11.866;2024-02-21T11:50:35;12.20;99.90
26182;DHT22;13927;51.534;11.866;2024-02-21T11:53:05;12.30;99.90
26182;DHT22;13927;51.534;11.866;2024-02-21T11:55:31;12.20;99.90
26182;DHT22;13927;51.534;11.866;2024-02-21T11:57:57;11.90;99.90
26182;DHT22;13927;51.534;11.866;2024-02-21T12:00:25;11.70;99.90
26182;DHT22;13927;51.534;11.866;2024-02-21T12:02:51;11.60;99.90
26182;DHT22;13927;51.534;11.866;2024-02-21T12:05:19;11.40;99.90
26182;DHT22;13927;51.534;11.866;2024-02-21T12:07:46;11.20;99.90
26182;DHT22;13927;51.534;11.866;2024-02-21T12:10:13;11.00;99.90
26182;DHT22;13927;51.534;11.866;2024-02-21T12:12:40;11.00;99.90
26182;DHT22;13927;51.534;11.866;2024-02-21T12:15:07;10.90;99.90
26182;DHT22;13927;51.534;11.866;2024-02-21T12:17:34;10.90;99.90
26182;DHT22;13927;51.534;11.866;2024-02-21T12:20:05;10.90;99.90
26182;DHT22;13927;51.534;11.866;2024-02-21T12:22:53;10.80;99.90
26182;DHT22;13927;51.534;11.866;2024-02-21T12:25:22;10.60;99.90
26182;DHT22;13927;51.534;11.866;2024-02-21T12:27:49;10.70;99.90
26182;DHT22;13927;51.534;11.866;2024-02-21T12:30:16;10.90;99.90
26182;DHT22;13927;51.534;11.866;2024-02-21T12:32:42;10.90;99.90
26182;DHT22;13927;51.534;11.866;2024-02-21T12:35:09;11.10;99.90
26182;DHT22;13927;51.534;11.866;2024-02-21T12:37:35;11.40;99.90
26182;DHT22;13927;51.534;11.866;2024-02-21T12:40:01;11.50;99.90
26182;DHT22;13927;51.534;11.866;2024-02-21T12:42:33;11.40;99.90
26182;DHT22;13927;51.534;11.866;2024-02-21T12:45:01;11.50;99.90
26182;DHT22;13927;51.534;11.866;2024-02-21T12:47:29;11.50;99.90
26182;DHT22;13927;51.534;11.866;2024-02-21T12:49:56;11.60;99.90
26182;DHT22;13927;51.534;11.866;2024-02-21T12:52:24;11.70;99.90
26182;DHT22;13927;51.534;11.866;2024-02-21T12:54:50;11.60;99.90
26182;DHT22;13927;51.534;11.866;2024-02-21T12:57:17;11.50;99.90
26182;DHT22;13927;51.534;11.866;2024-02-21T12:59:43;11.50;99.90
26182;DHT22;13927;51.534;11.866;2024-02-21T13:02:10;11.40;99.90
26182;DHT22;13927;51.534;11.866;2024-02-21T13:04:35;11.40;99.90
26182;DHT22;13927;51.534;11.866;2024-02-21T13:07:06;11.40;99.90
26182;DHT22;13927;51.534;11.866;2024-02-21T13:09:33;11.40;99.90
26182;DHT22;13927;51.534;11.866;2024-02-21T13:11:59;11.30;99.90
26182;DHT22;13927;51.534;11.866;2024-02-21T13:14:26;11.20;99.90
26182;DHT22;13927;51.534;11.866;2024-02-21T13:16:53;11.20;99.90
26182;DHT22;13927;51.534;11.866;2024-02-21T13:19:19;11.30;99.90
26182;DHT22;13927;51.534;11.866;2024-02-21T13:21:46;11.20;99.90
26182;DHT22;13927;51.534;11.866;2024-02-21T13:24:13;11.40;99.90
26182;DHT22;13927;51.534;11.866;2024-02-21T13:26:39;11.70;99.90
26182;DHT22;13927;51.534;11.866;2024-02-21T13:29:06;11.80;99.90
26182;DHT22;13927;51.534;11.866;2024-02-21T13:31:32;12.00;99.90
26182;DHT22;13927;51.534;11.866;2024-02-21T13:33:58;12.10;99.90
26182;DHT22;13927;51.534;11.866;2024-02-21T13:36:24;12.20;99.90
26182;DHT22;13927;51.534;11.866;2024-02-21T13:38:51;12.40;99.90
26182;DHT22;13927;51.534;11.866;2024-02-21T13:41:18;12.60;99.90
26182;DHT22;13927;51.534;11.866;2024-02-21T13:43:44;12.70;99.90
26182;DHT22;13927;51.534;11.866;2024-02-21T13:46:12;12.60;99.90
26182;DHT22;13927;51.534;11.866;2024-02-21T13:48:39;12.50;99.90
26182;DHT22;13927;51.534;11.866;2024-02-21T13:51:05;12.40;99.90
26182;DHT22;13927;51.534;11.866;2024-02-21T13:53:32;12.30;99.90
26182;DHT22;13927;51.534;11.866;2024-02-21T13:56:00;12.30;99.90
26182;DHT22;13927;51.534;11.866;2024-02-21T13:58:26;12.30;99.90
26182;DHT22;13927;51.534;11.866;2024-02-21T14:00:53;12.30;99.90
26182;DHT22;13927;51.534;11.866;2024-02-21T14:03:19;12.10;99.90
26182;DHT22;13927;51.534;11.866;2024-02-21T14:05:45;12.10;99.90
26182;DHT22;13927;51.534;11.866;2024-02-21T14:08:14;12.10;99.90
26182;DHT22;13927;51.534;11.866;2024-02-21T14:10:40;12.10;99.90
26182;DHT22;13927;51.534;11.866;2024-02-21T14:13:06;12.20;99.90
26182;DHT22;13927;51.534;11.866;2024-02-21T14:15:32;12.20;99.90
26182;DHT22;13927;51.534;11.866;2024-02-21T14:17:57;12.20;99.90
26182;DHT22;13927;51.534;11.866;2024-02-21T14:20:23;12.20;99.90
26182;DHT22;13927;51.534;11.866;2024-02-21T14:22:49;12.10;99.90
26182;DHT22;13927;51.534;11.866;2024-02-21T14:25:15;11.90;99.90
26182;DHT22;13927;51.534;11.866;2024-02-21T14:27:41;11.80;99.90
26182;DHT22;13927;51.534;11.866;2024-02-21T14:30:09;11.80;99.90
26182;DHT22;13927;51.534;11.866;2024-02-21T14:32:36;11.80;99.90
26182;DHT22;13927;51.534;11.866;2024-02-21T14:35:02;11.90;99.90
26182;DHT22;13927;51.534;11.866;2024-02-21T14:37:29;12.00;99.90
26182;DHT22;13927;51.534;11.866;2024-02-21T14:39:54;12.00;99.90
26182;DHT22;13927;51.534;11.866;2024-02-21T14:42:20;12.10;99.90
26182;DHT22;13927;51.534;11.866;2024-02-21T14:44:46;12.10;99.90
26182;DHT22;13927;51.534;11.866;2024-02-21T14:47:12;12.10;99.90
26182;DHT22;13927;51.534;11.866;2024-02-21T14:49:37;12.00;99.90
26182;DHT22;13927;51.534;11.866;2024-02-21T14:52:03;12.00;99.90
26182;DHT22;13927;51.534;11.866;2024-02-21T14:54:29;12.00;99.90
26182;DHT22;13927;51.534;11.866;2024-02-21T14:56:55;12.00;99.90
26182;DHT22;13927;51.534;11.866;2024-02-21T14:59:21;12.10;99.90
26182;DHT22;13927;51.534;11.866;2024-02-21T15:01:46;12.10;99.90
26182;DHT22;13927;51.534;11.866;2024-02-21T15:04:12;12.10;99.90
26182;DHT22;13927;51.534;11.866;2024-02-21T15:06:38;12.10;99.90
26182;DHT22;13927;51.534;11.866;2024-02-21T15:09:04;12.10;99.90
26182;DHT22;13927;51.534;11.866;2024-02-21T15:11:32;12.00;99.90
26182;DHT22;13927;51.534;11.866;2024-02-21T15:13:58;12.00;99.90
26182;DHT22;13927;51.534;11.866;2024-02-21T15:16:24;12.00;99.90
26182;DHT22;13927;51.534;11.866;2024-02-21T15:18:50;11.90;99.90
26182;DHT22;13927;51.534;11.866;2024-02-21T15:21:16;11.90;99.90
26182;DHT22;13927;51.534;11.866;2024-02-21T15:23:42;11.90;99.90
26182;DHT22;13927;51.534;11.866;2024-02-21T15:26:08;11.90;99.90